createdAt,value
2023-01-04T00:01:20.609Z,102506.75
2023-01-04T00:04:24.833Z,102511.19
2023-01-04T00:07:29.734Z,102498.78
2023-01-04T00:10:32.630Z,102496.09
2023-01-04T00:13:35.834Z,102488.13
2023-01-04T00:16:38.929Z,102470.38
2023-01-04T00:19:43.300Z,102470.38
2023-01-04T00:22:46.183Z,102456.22
2023-01-04T00:25:49.065Z,102464.22
2023-01-04T00:28:55.625Z,102454.47
2023-01-04T00:31:58.480Z,102458.00
2023-01-04T00:35:02.935Z,102462.47
2023-01-04T00:38:05.754Z,102450.03
2023-01-04T00:41:23.100Z,102438.50
2023-01-04T00:44:31.809Z,102434.97
2023-01-04T00:47:34.799Z,102429.66
2023-01-04T00:50:38.992Z,102420.75
2023-01-04T00:53:41.848Z,102419.00
2023-01-04T00:56:44.994Z,102407.50
2023-01-04T00:59:47.805Z,102406.59
2023-01-04T01:02:50.776Z,102406.59
2023-01-04T01:05:55.148Z,102401.28
2023-01-04T01:08:58.358Z,102379.13
2023-01-04T01:12:01.188Z,102373.81
2023-01-04T01:15:04.539Z,102363.22
2023-01-04T01:18:07.681Z,102362.31
2023-01-04T01:21:15.250Z,102365.84
2023-01-04T01:24:19.951Z,102364.06
2023-01-04T01:27:22.774Z,102368.50
2023-01-04T01:30:25.628Z,102358.75
2023-01-04T01:33:28.823Z,102359.66
2023-01-04T01:36:33.876Z,102362.31
2023-01-04T01:39:36.700Z,102360.56
2023-01-04T01:42:39.579Z,102372.94
2023-01-04T01:45:42.409Z,102379.19
2023-01-04T01:48:45.468Z,102383.56
2023-01-04T01:51:49.733Z,102383.63
2023-01-04T01:54:58.605Z,102385.38
2023-01-04T01:58:03.005Z,102383.56
2023-01-04T02:01:06.132Z,102389.78
2023-01-04T02:04:09.961Z,102378.25
2023-01-04T02:07:17.324Z,102369.41
2023-01-04T02:10:20.769Z,102367.63
2023-01-04T02:13:47.182Z,102350.78
2023-01-04T02:17:02.095Z,102352.56
2023-01-04T02:20:25.305Z,102345.50
2023-01-04T02:23:54.347Z,102318.03
2023-01-04T02:27:24.099Z,102312.72
2023-01-04T02:31:15.815Z,102289.69
2023-01-04T02:34:27.421Z,102278.16
2023-01-04T02:37:39.516Z,102262.22
2023-01-04T02:40:51.983Z,102255.97
2023-01-04T02:44:17.606Z,102240.03
2023-01-04T02:47:40.943Z,102230.31
2023-01-04T02:50:53.079Z,102225.00
2023-01-04T02:53:57.551Z,102215.25
2023-01-04T02:57:22.969Z,102203.75
2023-01-04T03:00:56.664Z,102194.00
2023-01-04T03:04:31.004Z,102193.16
2023-01-04T03:07:43.018Z,102202.84
2023-01-04T03:10:51.898Z,102219.69
2023-01-04T03:13:56.472Z,102217.03
2023-01-04T03:17:01.399Z,102204.63
2023-01-04T03:20:10.550Z,102196.66
2023-01-04T03:23:34.749Z,102207.28
2023-01-04T03:26:58.013Z,102188.69
2023-01-04T03:30:23.471Z,102181.59
2023-01-04T03:33:42.895Z,102166.56
2023-01-04T03:36:56.048Z,102160.31
2023-01-04T03:40:36.318Z,102143.50
2023-01-04T03:44:02.847Z,102134.66
2023-01-04T03:47:27.370Z,102129.34
2023-01-04T03:50:35.472Z,102114.25
2023-01-04T03:53:46.674Z,102103.63
2023-01-04T03:56:51.737Z,102094.75
2023-01-04T03:59:58.973Z,102087.66
2023-01-04T04:03:07.414Z,102080.53
2023-01-04T04:06:27.849Z,102073.50
2023-01-04T04:09:32.440Z,102067.28
2023-01-04T04:12:35.409Z,102065.50
2023-01-04T04:15:38.279Z,102057.53
2023-01-04T04:18:41.340Z,102029.19
2023-01-04T04:21:44.245Z,102027.44
2023-01-04T04:24:48.450Z,102033.63
2023-01-04T04:27:51.266Z,102038.94
2023-01-04T04:30:54.127Z,102007.03
2023-01-04T04:33:57.011Z,102009.69
2023-01-04T04:36:59.850Z,102001.72
2023-01-04T04:40:04.270Z,101980.47
2023-01-04T04:43:08.580Z,101971.59
2023-01-04T04:46:11.526Z,101973.38
2023-01-04T04:49:15.699Z,101960.09
2023-01-04T04:52:18.603Z,101957.44
2023-01-04T04:55:22.868Z,101945.91
2023-01-04T04:58:25.703Z,101949.47
2023-01-04T05:01:28.663Z,101938.84
2023-01-04T05:04:31.594Z,101934.41
2023-01-04T05:07:34.612Z,101915.78
2023-01-04T05:10:39.375Z,101914.00
2023-01-04T05:13:41.521Z,101906.03
2023-01-04T05:16:45.169Z,101907.81
2023-01-04T05:19:48.108Z,101898.06
2023-01-04T05:22:51.015Z,101897.19
2023-01-04T05:25:59.330Z,101894.56
2023-01-04T05:29:02.089Z,101880.34
2023-01-04T05:32:04.116Z,101866.25
2023-01-04T05:35:07.766Z,101856.47
2023-01-04T05:38:10.614Z,101852.94
2023-01-04T05:41:28.721Z,101831.69
2023-01-04T05:44:31.608Z,101841.41
2023-01-04T05:47:34.948Z,101826.34
2023-01-04T05:50:37.803Z,101818.38
2023-01-04T05:53:40.864Z,101808.66
2023-01-04T05:56:45.027Z,101798.91
2023-01-04T05:59:47.934Z,101790.00
2023-01-04T06:02:52.538Z,101784.72
2023-01-04T06:05:55.480Z,101778.53
2023-01-04T06:08:58.292Z,101777.63
2023-01-04T06:12:02.514Z,101774.97
2023-01-04T06:15:06.902Z,101765.25
2023-01-04T06:18:13.283Z,101761.69
2023-01-04T06:21:16.799Z,101758.09
2023-01-04T06:24:19.800Z,101752.78
2023-01-04T06:27:24.245Z,101757.19
2023-01-04T06:30:29.062Z,101743.03
2023-01-04T06:33:32.358Z,101745.63
2023-01-04T06:36:36.005Z,101735.06
2023-01-04T06:39:38.836Z,101709.41
2023-01-04T06:42:45.637Z,101713.78
2023-01-04T06:45:48.555Z,101691.66
2023-01-04T06:48:52.515Z,101692.59
2023-01-04T06:51:55.513Z,101683.69
2023-01-04T06:54:58.431Z,101689.06
2023-01-04T06:58:02.953Z,101677.53
2023-01-04T07:01:06.531Z,101677.53
2023-01-04T07:04:09.546Z,101669.50
2023-01-04T07:07:12.615Z,101657.97
2023-01-04T07:10:15.417Z,101657.97
2023-01-04T07:13:19.653Z,101653.59
2023-01-04T07:16:23.084Z,101642.91
2023-01-04T07:19:25.994Z,101635.84
2023-01-04T07:22:28.795Z,101628.81
2023-01-04T07:25:31.607Z,101625.28
2023-01-04T07:28:53.359Z,101619.06
2023-01-04T07:31:56.571Z,101602.22
2023-01-04T07:34:59.399Z,101603.13
2023-01-04T07:38:02.276Z,101597.78
2023-01-04T07:41:05.476Z,101597.78
2023-01-04T07:44:10.607Z,101600.44
2023-01-04T07:47:13.466Z,101593.31
2023-01-04T07:50:16.486Z,101589.81
2023-01-04T07:53:19.772Z,101582.69
2023-01-04T07:56:22.704Z,101560.59
2023-01-04T07:59:27.158Z,101559.72
2023-01-04T08:02:30.108Z,101546.41
2023-01-04T08:05:33.853Z,101537.50
2023-01-04T08:08:36.745Z,101534.84
2023-01-04T08:11:40.043Z,101525.97
2023-01-04T08:14:44.243Z,101519.78
2023-01-04T08:17:47.114Z,101515.34
2023-01-04T08:20:56.517Z,101515.34
2023-01-04T08:24:02.068Z,101510.03
2023-01-04T08:27:06.654Z,101506.44
2023-01-04T08:30:12.251Z,101499.41
2023-01-04T08:33:15.835Z,101502.06
2023-01-04T08:36:26.290Z,101499.41
2023-01-04T08:39:33.388Z,101497.66
2023-01-04T08:42:36.243Z,101494.09
2023-01-04T08:45:40.469Z,101484.34
2023-01-04T08:48:43.572Z,101483.47
2023-01-04T08:51:47.168Z,101475.47
2023-01-04T08:54:50.304Z,101473.72
2023-01-04T08:57:53.173Z,101471.88
2023-01-04T09:01:01.575Z,101458.59
2023-01-04T09:04:04.579Z,101457.75
2023-01-04T09:07:07.408Z,101455.94
2023-01-04T09:10:10.972Z,101455.94
2023-01-04T09:13:13.811Z,101454.22
2023-01-04T09:16:20.890Z,101434.75
2023-01-04T09:19:23.780Z,101446.25
2023-01-04T09:22:26.672Z,101440.06
2023-01-04T09:25:29.511Z,101429.44
2023-01-04T09:28:32.380Z,101429.38
2023-01-04T09:31:36.691Z,101426.72
2023-01-04T09:34:39.962Z,101407.25
2023-01-04T09:37:42.822Z,101402.78
2023-01-04T09:40:55.207Z,101388.59
2023-01-04T09:44:02.028Z,101389.50
2023-01-04T09:47:10.927Z,101378.88
2023-01-04T09:50:18.734Z,101377.16
2023-01-04T09:53:28.335Z,101366.53
2023-01-04T09:56:34.111Z,101360.34
2023-01-04T09:59:37.051Z,101349.69
2023-01-04T10:02:44.160Z,101333.81
2023-01-04T10:05:47.094Z,101324.91
2023-01-04T10:08:50.462Z,101315.16
2023-01-04T10:12:11.099Z,101316.91
2023-01-04T10:15:26.795Z,101305.34
2023-01-04T10:22:06.270Z,101277.06
2023-01-04T10:25:24.752Z,101286.75
2023-01-04T10:28:40.458Z,101269.97
2023-01-04T10:31:49.341Z,101251.38
2023-01-04T10:34:54.666Z,101253.13
2023-01-04T10:38:00.658Z,101238.97
2023-01-04T10:41:10.784Z,101231.00
2023-01-04T10:44:18.776Z,101231.00
2023-01-04T10:47:28.368Z,101229.22
2023-01-04T10:50:40.210Z,101205.22
2023-01-04T10:53:48.527Z,101219.44
2023-01-04T10:56:55.409Z,101210.53
2023-01-04T11:00:03.928Z,101203.47
2023-01-04T11:03:14.500Z,101213.19
2023-01-04T11:06:23.283Z,101197.25
2023-01-04T11:09:30.918Z,101187.53
2023-01-04T11:12:33.955Z,101182.22
2023-01-04T11:15:37.074Z,101168.94
2023-01-04T11:18:43.782Z,101169.88
2023-01-04T11:21:52.859Z,101162.78
2023-01-04T11:28:29.773Z,101143.22
2023-01-04T11:31:44.711Z,101165.38
2023-01-04T11:34:51.975Z,101144.97
2023-01-04T11:38:12.320Z,101152.09
2023-01-04T11:41:17.788Z,101139.69
2023-01-04T11:44:21.124Z,101140.66
2023-01-04T11:47:28.294Z,101131.72
2023-01-04T11:50:42.102Z,101129.06
2023-01-04T11:53:47.244Z,101117.59
2023-01-04T11:57:05.872Z,101110.47
2023-01-04T12:00:17.570Z,101106.97
2023-01-04T12:03:27.207Z,101087.44
2023-01-04T12:06:39.062Z,101088.31
2023-01-04T12:09:43.405Z,101070.56
2023-01-04T12:12:46.240Z,101067.03
2023-01-04T12:16:01.092Z,101062.59
2023-01-04T12:19:05.187Z,101061.72
2023-01-04T12:22:22.405Z,101044.03
2023-01-04T12:25:39.384Z,101050.22
2023-01-04T12:28:44.402Z,101049.34
2023-01-04T12:31:47.258Z,101036.94
2023-01-04T12:34:50.359Z,101038.72
2023-01-04T12:37:53.245Z,101027.19
2023-01-04T12:40:57.428Z,101014.81
2023-01-04T12:44:01.206Z,101011.25
2023-01-04T12:47:21.696Z,101014.78
2023-01-04T12:50:27.623Z,101007.72
2023-01-04T12:53:59.715Z,100997.09
2023-01-04T12:57:37.691Z,101003.28
2023-01-04T13:01:09.874Z,100974.94
2023-01-04T13:04:39.016Z,100986.44
2023-01-04T13:07:45.784Z,100972.28
2023-01-04T13:10:51.624Z,100959.00
2023-01-04T13:14:02.906Z,100974.94
2023-01-04T13:17:16.553Z,100959.88
2023-01-04T13:20:22.620Z,100958.09
2023-01-04T13:23:27.695Z,100955.44
2023-01-04T13:26:37.595Z,100951.88
2023-01-04T13:29:42.812Z,100936.75
2023-01-04T13:33:24.436Z,100941.25
2023-01-04T13:36:12.837Z,100927.94
2023-01-04T13:39:15.778Z,100930.66
2023-01-04T13:42:26.453Z,100928.88
2023-01-04T13:45:52.181Z,100930.59
2023-01-04T13:49:00.617Z,100923.56
2023-01-04T13:52:44.842Z,100929.75
2023-01-04T13:55:40.119Z,100919.09
2023-01-04T13:58:44.815Z,100907.59
2023-01-04T14:01:50.019Z,100921.69
2023-01-04T14:04:53.046Z,100918.16
2023-01-04T14:07:55.986Z,100897.84
2023-01-04T14:10:58.974Z,100908.47
2023-01-04T14:14:01.899Z,100910.25
2023-01-04T14:17:19.291Z,100894.31
2023-01-04T14:20:37.025Z,100878.38
2023-01-04T14:23:39.894Z,100896.97
2023-01-04T14:26:43.664Z,100883.69
2023-01-04T14:29:46.576Z,100889.91
2023-01-04T14:32:57.327Z,100873.06
2023-01-04T14:36:05.364Z,100876.59
2023-01-04T14:39:18.590Z,100865.09
2023-01-04T14:42:26.450Z,100861.53
2023-01-04T14:45:29.298Z,100871.28
2023-01-04T14:48:33.416Z,100858.88
2023-01-04T14:51:39.085Z,100864.19
2023-01-04T14:54:41.953Z,100849.16
2023-01-04T14:57:45.328Z,100851.81
2023-01-04T15:00:48.216Z,100851.81
2023-01-04T15:03:52.558Z,100843.84
2023-01-04T15:06:58.324Z,100841.19
2023-01-04T15:10:01.115Z,100838.53
2023-01-04T15:13:04.395Z,100845.56
2023-01-04T15:16:08.294Z,100834.94
2023-01-04T15:19:12.508Z,100824.31
2023-01-04T15:22:15.367Z,100805.72
2023-01-04T15:25:18.465Z,100819.00
2023-01-04T15:28:22.069Z,100808.38
2023-01-04T15:31:31.232Z,100804.84
2023-01-04T15:34:44.823Z,100806.63
2023-01-04T15:37:49.835Z,100801.31
2023-01-04T15:40:52.623Z,100799.56
2023-01-04T15:43:55.432Z,100788.03
2023-01-04T15:46:59.393Z,100793.34
2023-01-04T15:50:04.343Z,100774.75
2023-01-04T15:53:08.071Z,100765.00
2023-01-04T15:56:13.456Z,100768.53
2023-01-04T15:59:16.287Z,100776.50
2023-01-04T16:02:19.334Z,100778.28
2023-01-04T16:05:23.734Z,100771.19
2023-01-04T16:08:26.616Z,100766.69
2023-01-04T16:11:29.481Z,100758.81
2023-01-04T16:14:32.341Z,100756.16
2023-01-04T16:17:35.293Z,100748.19
2023-01-04T16:20:41.907Z,100742.88
2023-01-04T16:23:44.720Z,100748.19
2023-01-04T16:26:47.539Z,100730.44
2023-01-04T16:29:51.515Z,100733.97
2023-01-04T16:32:54.697Z,100727.72
2023-01-04T16:36:03.524Z,100725.06
2023-01-04T16:39:06.634Z,100710.06
2023-01-04T16:42:11.129Z,100719.75
2023-01-04T16:45:15.392Z,100711.78
2023-01-04T16:48:18.795Z,100707.41
2023-01-04T16:51:24.653Z,100710.06
2023-01-04T16:54:27.583Z,100688.81
2023-01-04T16:57:30.424Z,100674.66
2023-01-04T17:00:33.367Z,100689.72
2023-01-04T17:03:36.376Z,100675.53
2023-01-04T17:06:42.735Z,100696.69
2023-01-04T17:09:45.551Z,100682.53
2023-01-04T17:12:49.227Z,100680.84
2023-01-04T17:15:52.239Z,100680.75
2023-01-04T17:18:56.148Z,100671.91
2023-01-04T17:22:00.323Z,100655.09
2023-01-04T17:25:03.324Z,100648.94
2023-01-04T17:28:06.170Z,100648.94
2023-01-04T17:31:13.640Z,100640.09
2023-01-04T17:34:22.615Z,100621.50
2023-01-04T17:37:30.695Z,100617.97
2023-01-04T17:40:33.819Z,100623.22
2023-01-04T17:43:36.984Z,100623.22
2023-01-04T17:46:39.933Z,100619.63
2023-01-04T17:49:42.792Z,100617.06
2023-01-04T17:52:47.695Z,100607.28
2023-01-04T17:55:50.495Z,100609.00
2023-01-04T17:58:53.391Z,100594.84
2023-01-04T18:01:56.212Z,100612.59
2023-01-04T18:04:59.398Z,100609.88
2023-01-04T18:08:03.539Z,100613.47
2023-01-04T18:11:08.419Z,100611.75
2023-01-04T18:14:14.063Z,100623.22
2023-01-04T18:17:17.405Z,100615.25
2023-01-04T18:20:24.885Z,100622.38
2023-01-04T18:23:30.233Z,100607.28
2023-01-04T18:26:53.470Z,100601.03
2023-01-04T18:29:56.954Z,100615.19
2023-01-04T18:32:59.862Z,100597.50
2023-01-04T18:36:04.281Z,100601.03
2023-01-04T18:39:08.519Z,100589.53
2023-01-04T18:42:11.476Z,100586.00
2023-01-04T18:45:14.323Z,100597.59
2023-01-04T18:48:17.203Z,100613.47
2023-01-04T18:51:20.755Z,100590.50
2023-01-04T18:54:25.036Z,100606.44
2023-01-04T18:57:28.348Z,100608.16
2023-01-04T19:00:31.202Z,100592.19
2023-01-04T19:03:36.736Z,100596.59
2023-01-04T19:06:40.971Z,100575.34
2023-01-04T19:09:45.268Z,100588.63
2023-01-04T19:12:48.139Z,100583.31
2023-01-04T19:15:50.956Z,100580.69
2023-01-04T19:18:53.780Z,100570.06
2023-01-04T19:21:56.718Z,100575.38
2023-01-04T19:25:00.971Z,100568.28
2023-01-04T19:28:04.243Z,100574.56
2023-01-04T19:31:08.771Z,100569.25
2023-01-04T19:34:11.645Z,100567.41
2023-01-04T19:37:14.479Z,100578.00
2023-01-04T19:40:18.979Z,100567.38
2023-01-04T19:43:21.806Z,100562.88
2023-01-04T19:46:24.658Z,100562.06
2023-01-04T19:49:27.671Z,100563.75
2023-01-04T19:52:34.206Z,100562.06
2023-01-04T19:55:41.667Z,100550.56
2023-01-04T19:58:45.203Z,100544.38
2023-01-04T20:01:48.165Z,100549.69
2023-01-04T20:04:51.154Z,100547.13
2023-01-04T20:07:53.974Z,100530.22
2023-01-04T20:11:00.627Z,100542.66
2023-01-04T20:14:03.438Z,100549.69
2023-01-04T20:17:06.674Z,100539.06
2023-01-04T20:20:10.777Z,100557.56
2023-01-04T20:23:14.721Z,100551.44
2023-01-04T20:26:20.382Z,100582.44
2023-01-04T20:29:23.163Z,100586.81
2023-01-04T20:32:26.010Z,100571.81
2023-01-04T20:35:29.128Z,100585.97
2023-01-04T20:38:37.761Z,100583.31
2023-01-04T20:42:04.468Z,100570.94
2023-01-04T20:45:08.607Z,100570.06
2023-01-04T20:48:11.499Z,100560.31
2023-01-04T20:51:17.204Z,100543.47
2023-01-04T20:54:20.055Z,100538.97
2023-01-04T20:57:24.348Z,100531.88
2023-01-04T21:00:27.179Z,100530.16
2023-01-04T21:03:30.125Z,100526.56
2023-01-04T21:06:34.840Z,100512.50
2023-01-04T21:09:37.641Z,100516.00
2023-01-04T21:12:41.928Z,100510.69
2023-01-04T21:15:44.781Z,100510.69
2023-01-04T21:18:47.678Z,100518.75
2023-01-04T21:21:50.521Z,100522.25
2023-01-04T21:24:53.361Z,100522.25
2023-01-04T21:28:00.638Z,100528.44
2023-01-04T21:31:03.749Z,100531.09
2023-01-04T21:34:12.452Z,100522.19
2023-01-04T21:37:17.229Z,100521.25
2023-01-04T21:40:20.333Z,100520.38
2023-01-04T21:43:24.483Z,100503.59
2023-01-04T21:46:28.785Z,100491.22
2023-01-04T21:49:31.831Z,100503.59
2023-01-04T21:52:34.718Z,100491.22
2023-01-04T21:55:37.560Z,100494.75
2023-01-04T21:58:41.874Z,100496.53
2023-01-04T22:01:44.984Z,100495.69
2023-01-04T22:04:48.003Z,100492.97
2023-01-04T22:07:50.891Z,100492.97
2023-01-04T22:10:54.614Z,100499.13
2023-01-04T22:13:58.925Z,100494.69
2023-01-04T22:17:02.061Z,100497.34
2023-01-04T22:20:05.422Z,100484.06
2023-01-04T22:23:08.268Z,100486.78
2023-01-04T22:26:11.842Z,100474.38
2023-01-04T22:29:16.151Z,100475.22
2023-01-04T22:32:18.952Z,100474.38
2023-01-04T22:35:21.889Z,100462.00
2023-01-04T22:38:24.687Z,100462.97
2023-01-04T22:41:29.335Z,100477.06
2023-01-04T22:44:33.702Z,100521.31
2023-01-04T22:47:37.177Z,100515.16
2023-01-04T22:50:40.158Z,100529.22
2023-01-04T22:53:43.124Z,100526.56
2023-01-04T22:56:46.011Z,100539.06
2023-01-04T22:59:50.347Z,100514.22
2023-01-04T23:02:53.263Z,100503.59
2023-01-04T23:05:56.158Z,100511.56
2023-01-04T23:09:01.181Z,100517.81
2023-01-04T23:12:04.053Z,100501.84
2023-01-04T23:15:09.825Z,100507.19
2023-01-04T23:18:12.641Z,100516.09
2023-01-04T23:21:16.895Z,100516.09
2023-01-04T23:24:19.748Z,100519.53
2023-01-04T23:27:22.565Z,100506.25
2023-01-04T23:30:26.744Z,100497.41
2023-01-04T23:33:36.060Z,100504.44
2023-01-04T23:36:41.359Z,100503.59
2023-01-04T23:39:44.289Z,100498.28
2023-01-04T23:42:47.207Z,100498.28
2023-01-04T23:45:51.446Z,100497.41
2023-01-04T23:48:54.292Z,100502.72
2023-01-04T23:51:57.843Z,100502.81
2023-01-04T23:55:00.638Z,100493.97
2023-01-04T23:58:03.487Z,100500.16
